sensor_id;sensor_type;location;lat;lon;timestamp;P1;durP1;ratioP1;P2;durP2;ratioP2
70588;SDS011;58152;49.202;18.744;2022-08-05T00:02:18;5.63;;;5.13;;
70588;SDS011;58152;49.202;18.744;2022-08-05T00:04:43;6.30;;;5.68;;
70588;SDS011;58152;49.202;18.744;2022-08-05T00:07:10;6.30;;;5.70;;
70588;SDS011;58152;49.202;18.744;2022-08-05T00:09:35;9.55;;;5.72;;
70588;SDS011;58152;49.202;18.744;2022-08-05T00:12:04;6.63;;;5.15;;
70588;SDS011;58152;49.202;18.744;2022-08-05T00:14:29;5.70;;;5.30;;
70588;SDS011;58152;49.202;18.744;2022-08-05T00:16:56;5.55;;;5.15;;
70588;SDS011;58152;49.202;18.744;2022-08-05T00:19:22;6.03;;;4.97;;
70588;SDS011;58152;49.202;18.744;2022-08-05T00:21:51;6.75;;;5.55;;
70588;SDS011;58152;49.202;18.744;2022-08-05T00:24:16;5.60;;;5.18;;
70588;SDS011;58152;49.202;18.744;2022-08-05T00:26:47;6.22;;;5.63;;
70588;SDS011;58152;49.202;18.744;2022-08-05T00:29:19;6.30;;;5.57;;
70588;SDS011;58152;49.202;18.744;2022-08-05T00:31:44;6.18;;;5.60;;
70588;SDS011;58152;49.202;18.744;2022-08-05T00:34:14;5.78;;;5.15;;
70588;SDS011;58152;49.202;18.744;2022-08-05T00:36:39;6.07;;;5.57;;
70588;SDS011;58152;49.202;18.744;2022-08-05T00:39:05;5.35;;;4.95;;
70588;SDS011;58152;49.202;18.744;2022-08-05T00:41:34;5.50;;;5.00;;
70588;SDS011;58152;49.202;18.744;2022-08-05T00:44:00;6.15;;;5.55;;
70588;SDS011;58152;49.202;18.744;2022-08-05T00:46:29;6.28;;;5.70;;
70588;SDS011;58152;49.202;18.744;2022-08-05T00:49:07;6.43;;;5.82;;
70588;SDS011;58152;49.202;18.744;2022-08-05T00:51:32;5.47;;;4.95;;
70588;SDS011;58152;49.202;18.744;2022-08-05T00:54:04;5.55;;;5.15;;
70588;SDS011;58152;49.202;18.744;2022-08-05T00:56:29;5.75;;;5.35;;
70588;SDS011;58152;49.202;18.744;2022-08-05T00:58:55;5.80;;;5.30;;
70588;SDS011;58152;49.202;18.744;2022-08-05T01:01:26;5.75;;;5.25;;
70588;SDS011;58152;49.202;18.744;2022-08-05T01:03:54;6.07;;;5.57;;
70588;SDS011;58152;49.202;18.744;2022-08-05T01:06:21;7.32;;;4.70;;
70588;SDS011;58152;49.202;18.744;2022-08-05T01:08:52;5.82;;;5.32;;
70588;SDS011;58152;49.202;18.744;2022-08-05T01:11:20;5.70;;;5.20;;
70588;SDS011;58152;49.202;18.744;2022-08-05T01:16:33;6.13;;;5.55;;
70588;SDS011;58152;49.202;18.744;2022-08-05T01:22:13;5.30;;;4.80;;
70588;SDS011;58152;49.202;18.744;2022-08-05T01:27:52;5.18;;;4.78;;
70588;SDS011;58152;49.202;18.744;2022-08-05T01:30:38;6.28;;;5.25;;
70588;SDS011;58152;49.202;18.744;2022-08-05T01:33:08;6.13;;;5.57;;
70588;SDS011;58152;49.202;18.744;2022-08-05T01:35:38;5.80;;;4.85;;
70588;SDS011;58152;49.202;18.744;2022-08-05T01:38:05;5.88;;;5.38;;
70588;SDS011;58152;49.202;18.744;2022-08-05T01:40:34;6.93;;;5.28;;
70588;SDS011;58152;49.202;18.744;2022-08-05T01:43:04;5.57;;;5.00;;
70588;SDS011;58152;49.202;18.744;2022-08-05T01:45:31;6.53;;;5.93;;
70588;SDS011;58152;49.202;18.744;2022-08-05T01:48:02;5.35;;;4.95;;
70588;SDS011;58152;49.202;18.744;2022-08-05T01:50:33;6.22;;;5.60;;
70588;SDS011;58152;49.202;18.744;2022-08-05T01:53:03;6.03;;;5.15;;
70588;SDS011;58152;49.202;18.744;2022-08-05T01:55:32;5.07;;;4.50;;
70588;SDS011;58152;49.202;18.744;2022-08-05T01:57:59;5.32;;;4.93;;
70588;SDS011;58152;49.202;18.744;2022-08-05T02:00:26;6.03;;;5.55;;
70588;SDS011;58152;49.202;18.744;2022-08-05T02:02:57;7.03;;;5.10;;
70588;SDS011;58152;49.202;18.744;2022-08-05T02:05:29;5.82;;;5.32;;
70588;SDS011;58152;49.202;18.744;2022-08-05T02:07:59;5.78;;;5.35;;
70588;SDS011;58152;49.202;18.744;2022-08-05T02:10:25;7.43;;;5.90;;
70588;SDS011;58152;49.202;18.744;2022-08-05T02:12:54;6.03;;;5.40;;
70588;SDS011;58152;49.202;18.744;2022-08-05T02:15:27;5.88;;;5.10;;
70588;SDS011;58152;49.202;18.744;2022-08-05T02:18:06;5.85;;;5.30;;
70588;SDS011;58152;49.202;18.744;2022-08-05T02:20:57;5.57;;;5.18;;
70588;SDS011;58152;49.202;18.744;2022-08-05T02:23:32;6.03;;;5.38;;
70588;SDS011;58152;49.202;18.744;2022-08-05T02:26:03;6.72;;;6.10;;
70588;SDS011;58152;49.202;18.744;2022-08-05T02:28:32;5.57;;;5.07;;
70588;SDS011;58152;49.202;18.744;2022-08-05T02:31:08;6.53;;;5.38;;
70588;SDS011;58152;49.202;18.744;2022-08-05T02:33:46;5.80;;;5.32;;
70588;SDS011;58152;49.202;18.744;2022-08-05T02:36:15;6.10;;;5.63;;
70588;SDS011;58152;49.202;18.744;2022-08-05T02:38:44;6.15;;;5.55;;
70588;SDS011;58152;49.202;18.744;2022-08-05T02:41:15;4.95;;;4.53;;
70588;SDS011;58152;49.202;18.744;2022-08-05T02:43:44;5.60;;;5.10;;
70588;SDS011;58152;49.202;18.744;2022-08-05T02:46:20;6.50;;;5.90;;
70588;SDS011;58152;49.202;18.744;2022-08-05T02:48:46;5.35;;;4.95;;
70588;SDS011;58152;49.202;18.744;2022-08-05T02:51:13;5.80;;;5.30;;
70588;SDS011;58152;49.202;18.744;2022-08-05T02:53:40;5.88;;;5.38;;
70588;SDS011;58152;49.202;18.744;2022-08-05T02:56:09;5.53;;;5.03;;
70588;SDS011;58152;49.202;18.744;2022-08-05T02:58:39;5.15;;;4.78;;
70588;SDS011;58152;49.202;18.744;2022-08-05T03:01:08;5.78;;;5.25;;
70588;SDS011;58152;49.202;18.744;2022-08-05T03:03:40;5.60;;;5.10;;
70588;SDS011;58152;49.202;18.744;2022-08-05T03:06:08;5.60;;;5.20;;
70588;SDS011;58152;49.202;18.744;2022-08-05T03:08:36;6.03;;;5.50;;
70588;SDS011;58152;49.202;18.744;2022-08-05T03:11:03;6.13;;;5.63;;
70588;SDS011;58152;49.202;18.744;2022-08-05T03:13:28;6.05;;;5.55;;
70588;SDS011;58152;49.202;18.744;2022-08-05T03:15:54;6.25;;;5.65;;
70588;SDS011;58152;49.202;18.744;2022-08-05T03:18:19;5.47;;;5.07;;
70588;SDS011;58152;49.202;18.744;2022-08-05T03:20:45;6.47;;;5.28;;
70588;SDS011;58152;49.202;18.744;2022-08-05T03:23:10;7.45;;;4.78;;
70588;SDS011;58152;49.202;18.744;2022-08-05T03:25:37;6.60;;;6.00;;
70588;SDS011;58152;49.202;18.744;2022-08-05T03:28:04;5.82;;;5.32;;
70588;SDS011;58152;49.202;18.744;2022-08-05T03:30:31;6.00;;;5.50;;
70588;SDS011;58152;49.202;18.744;2022-08-05T03:32:58;6.05;;;5.43;;
70588;SDS011;58152;49.202;18.744;2022-08-05T03:35:25;6.05;;;5.55;;
70588;SDS011;58152;49.202;18.744;2022-08-05T03:37:52;6.22;;;5.65;;
70588;SDS011;58152;49.202;18.744;2022-08-05T03:40:21;6.97;;;6.28;;
70588;SDS011;58152;49.202;18.744;2022-08-05T03:42:47;6.20;;;5.60;;
70588;SDS011;58152;49.202;18.744;2022-08-05T03:45:12;6.90;;;5.78;;
70588;SDS011;58152;49.202;18.744;2022-08-05T03:47:38;6.00;;;5.50;;
70588;SDS011;58152;49.202;18.744;2022-08-05T03:50:03;6.45;;;5.85;;
70588;SDS011;58152;49.202;18.744;2022-08-05T03:52:30;6.00;;;5.50;;
70588;SDS011;58152;49.202;18.744;2022-08-05T03:55:03;6.10;;;5.60;;
70588;SDS011;58152;49.202;18.744;2022-08-05T03:57:34;5.68;;;5.18;;
70588;SDS011;58152;49.202;18.744;2022-08-05T04:00:04;6.32;;;5.72;;
70588;SDS011;58152;49.202;18.744;2022-08-05T04:02:32;8.73;;;5.63;;
70588;SDS011;58152;49.202;18.744;2022-08-05T04:05:00;5.85;;;5.35;;
70588;SDS011;58152;49.202;18.744;2022-08-05T04:07:27;7.22;;;6.35;;
70588;SDS011;58152;49.202;18.744;2022-08-05T04:09:53;5.97;;;5.47;;
70588;SDS011;58152;49.202;18.744;2022-08-05T04:12:19;6.13;;;5.53;;
70588;SDS011;58152;49.202;18.744;2022-08-05T04:14:45;6.00;;;5.50;;
70588;SDS011;58152;49.202;18.744;2022-08-05T04:17:11;5.97;;;5.47;;
70588;SDS011;58152;49.202;18.744;2022-08-05T04:19:44;5.78;;;5.28;;
70588;SDS011;58152;49.202;18.744;2022-08-05T04:22:11;6.68;;;6.10;;
70588;SDS011;58152;49.202;18.744;2022-08-05T04:24:42;7.75;;;6.30;;
70588;SDS011;58152;49.202;18.744;2022-08-05T04:27:09;8.07;;;6.82;;
70588;SDS011;58152;49.202;18.744;2022-08-05T04:29:34;8.93;;;8.10;;
70588;SDS011;58152;49.202;18.744;2022-08-05T04:32:00;7.40;;;6.72;;
70588;SDS011;58152;49.202;18.744;2022-08-05T04:34:25;8.48;;;7.78;;
70588;SDS011;58152;49.202;18.744;2022-08-05T04:36:51;7.03;;;6.28;;
70588;SDS011;58152;49.202;18.744;2022-08-05T04:39:17;9.25;;;8.10;;
70588;SDS011;58152;49.202;18.744;2022-08-05T04:41:43;10.48;;;9.55;;
70588;SDS011;58152;49.202;18.744;2022-08-05T04:44:10;9.13;;;8.32;;
70588;SDS011;58152;49.202;18.744;2022-08-05T04:46:36;8.10;;;7.07;;
70588;SDS011;58152;49.202;18.744;2022-08-05T04:49:02;8.25;;;6.60;;
70588;SDS011;58152;49.202;18.744;2022-08-05T04:51:28;6.95;;;6.25;;
70588;SDS011;58152;49.202;18.744;2022-08-05T04:53:53;7.88;;;7.13;;
70588;SDS011;58152;49.202;18.744;2022-08-05T04:56:19;7.97;;;7.20;;
70588;SDS011;58152;49.202;18.744;2022-08-05T04:58:44;7.88;;;7.07;;
70588;SDS011;58152;49.202;18.744;2022-08-05T05:01:10;8.48;;;6.60;;
70588;SDS011;58152;49.202;18.744;2022-08-05T05:03:35;9.88;;;7.15;;
70588;SDS011;58152;49.202;18.744;2022-08-05T05:06:01;7.60;;;6.95;;
70588;SDS011;58152;49.202;18.744;2022-08-05T05:08:26;7.22;;;6.63;;
70588;SDS011;58152;49.202;18.744;2022-08-05T05:10:52;8.50;;;7.60;;
70588;SDS011;58152;49.202;18.744;2022-08-05T05:13:17;131.90;;;117.38;;
70588;SDS011;58152;49.202;18.744;2022-08-05T05:15:45;293.77;;;257.52;;
70588;SDS011;58152;49.202;18.744;2022-08-05T05:18:12;178.70;;;151.05;;
70588;SDS011;58152;49.202;18.744;2022-08-05T05:20:39;59.88;;;51.63;;
70588;SDS011;58152;49.202;18.744;2022-08-05T05:23:07;24.42;;;21.25;;
70588;SDS011;58152;49.202;18.744;2022-08-05T05:25:32;14.27;;;11.55;;
70588;SDS011;58152;49.202;18.744;2022-08-05T05:27:58;10.27;;;8.40;;
70588;SDS011;58152;49.202;18.744;2022-08-05T05:30:23;8.77;;;7.80;;
70588;SDS011;58152;49.202;18.744;2022-08-05T05:32:49;7.65;;;7.00;;
70588;SDS011;58152;49.202;18.744;2022-08-05T05:35:16;7.72;;;7.03;;
70588;SDS011;58152;49.202;18.744;2022-08-05T05:37:55;7.43;;;6.82;;
70588;SDS011;58152;49.202;18.744;2022-08-05T05:40:24;8.48;;;6.90;;
70588;SDS011;58152;49.202;18.744;2022-08-05T05:42:50;7.70;;;6.80;;
70588;SDS011;58152;49.202;18.744;2022-08-05T05:45:16;7.90;;;6.70;;
70588;SDS011;58152;49.202;18.744;2022-08-05T05:47:42;8.30;;;6.70;;
70588;SDS011;58152;49.202;18.744;2022-08-05T05:50:09;7.70;;;6.22;;
70588;SDS011;58152;49.202;18.744;2022-08-05T05:52:37;7.47;;;6.78;;
70588;SDS011;58152;49.202;18.744;2022-08-05T05:55:04;8.35;;;7.55;;
70588;SDS011;58152;49.202;18.744;2022-08-05T05:57:35;8.98;;;7.68;;
70588;SDS011;58152;49.202;18.744;2022-08-05T06:00:03;9.38;;;8.05;;
70588;SDS011;58152;49.202;18.744;2022-08-05T06:02:30;7.40;;;6.70;;
70588;SDS011;58152;49.202;18.744;2022-08-05T06:04:55;9.70;;;7.15;;
70588;SDS011;58152;49.202;18.744;2022-08-05T06:07:21;7.70;;;7.10;;
70588;SDS011;58152;49.202;18.744;2022-08-05T06:09:46;7.88;;;7.15;;
70588;SDS011;58152;49.202;18.744;2022-08-05T06:12:12;7.85;;;7.00;;
70588;SDS011;58152;49.202;18.744;2022-08-05T06:14:37;8.27;;;7.47;;
70588;SDS011;58152;49.202;18.744;2022-08-05T06:17:03;10.77;;;9.20;;
70588;SDS011;58152;49.202;18.744;2022-08-05T06:19:28;26.10;;;21.88;;
70588;SDS011;58152;49.202;18.744;2022-08-05T06:21:54;33.80;;;28.60;;
70588;SDS011;58152;49.202;18.744;2022-08-05T06:24:19;23.42;;;19.98;;
70588;SDS011;58152;49.202;18.744;2022-08-05T06:26:45;13.32;;;12.02;;
70588;SDS011;58152;49.202;18.744;2022-08-05T06:29:10;10.27;;;9.18;;
70588;SDS011;58152;49.202;18.744;2022-08-05T06:31:36;7.35;;;6.72;;
70588;SDS011;58152;49.202;18.744;2022-08-05T06:34:02;6.65;;;5.80;;
70588;SDS011;58152;49.202;18.744;2022-08-05T06:36:29;7.18;;;6.47;;
70588;SDS011;58152;49.202;18.744;2022-08-05T06:38:54;8.15;;;7.15;;
70588;SDS011;58152;49.202;18.744;2022-08-05T06:41:20;7.43;;;6.47;;
70588;SDS011;58152;49.202;18.744;2022-08-05T06:43:46;7.88;;;6.95;;
70588;SDS011;58152;49.202;18.744;2022-08-05T06:46:12;7.40;;;6.38;;
70588;SDS011;58152;49.202;18.744;2022-08-05T06:48:37;6.80;;;6.18;;
70588;SDS011;58152;49.202;18.744;2022-08-05T06:51:03;7.38;;;6.72;;
70588;SDS011;58152;49.202;18.744;2022-08-05T06:53:29;8.25;;;6.18;;
70588;SDS011;58152;49.202;18.744;2022-08-05T06:55:58;5.88;;;5.25;;
70588;SDS011;58152;49.202;18.744;2022-08-05T06:58:28;7.57;;;5.65;;
70588;SDS011;58152;49.202;18.744;2022-08-05T07:00:56;6.18;;;5.40;;
70588;SDS011;58152;49.202;18.744;2022-08-05T07:03:23;5.45;;;5.03;;
70588;SDS011;58152;49.202;18.744;2022-08-05T07:05:48;6.07;;;5.57;;
70588;SDS011;58152;49.202;18.744;2022-08-05T07:08:14;5.38;;;4.90;;
70588;SDS011;58152;49.202;18.744;2022-08-05T07:10:39;5.70;;;5.20;;
70588;SDS011;58152;49.202;18.744;2022-08-05T07:13:05;6.70;;;5.78;;
70588;SDS011;58152;49.202;18.744;2022-08-05T07:15:48;5.70;;;5.20;;
70588;SDS011;58152;49.202;18.744;2022-08-05T07:18:32;6.30;;;5.22;;
70588;SDS011;58152;49.202;18.744;2022-08-05T07:20:58;6.65;;;4.90;;
70588;SDS011;58152;49.202;18.744;2022-08-05T07:23:23;6.13;;;5.57;;
70588;SDS011;58152;49.202;18.744;2022-08-05T07:25:49;7.05;;;5.95;;
70588;SDS011;58152;49.202;18.744;2022-08-05T07:28:14;6.80;;;5.60;;
70588;SDS011;58152;49.202;18.744;2022-08-05T07:30:40;5.68;;;5.18;;
70588;SDS011;58152;49.202;18.744;2022-08-05T07:33:09;5.57;;;5.03;;
70588;SDS011;58152;49.202;18.744;2022-08-05T07:35:39;5.30;;;4.90;;
70588;SDS011;58152;49.202;18.744;2022-08-05T07:38:05;5.82;;;5.32;;
70588;SDS011;58152;49.202;18.744;2022-08-05T07:40:30;6.95;;;5.78;;
70588;SDS011;58152;49.202;18.744;2022-08-05T07:42:56;6.60;;;5.95;;
70588;SDS011;58152;49.202;18.744;2022-08-05T07:45:21;6.30;;;5.70;;
70588;SDS011;58152;49.202;18.744;2022-08-05T07:47:47;7.28;;;6.22;;
70588;SDS011;58152;49.202;18.744;2022-08-05T07:50:12;5.72;;;5.22;;
70588;SDS011;58152;49.202;18.744;2022-08-05T07:52:39;7.47;;;6.07;;
70588;SDS011;58152;49.202;18.744;2022-08-05T07:55:05;6.85;;;6.15;;
70588;SDS011;58152;49.202;18.744;2022-08-05T07:57:32;8.07;;;6.82;;
70588;SDS011;58152;49.202;18.744;2022-08-05T07:59:57;8.38;;;7.30;;
70588;SDS011;58152;49.202;18.744;2022-08-05T08:02:25;6.07;;;5.55;;
70588;SDS011;58152;49.202;18.744;2022-08-05T08:07:24;5.13;;;4.63;;
70588;SDS011;58152;49.202;18.744;2022-08-05T08:09:51;4.40;;;4.03;;
70588;SDS011;58152;49.202;18.744;2022-08-05T08:12:17;8.57;;;7.53;;
70588;SDS011;58152;49.202;18.744;2022-08-05T08:14:42;8.50;;;7.70;;
70588;SDS011;58152;49.202;18.744;2022-08-05T08:17:08;8.27;;;6.65;;
70588;SDS011;58152;49.202;18.744;2022-08-05T08:19:37;8.52;;;6.00;;
70588;SDS011;58152;49.202;18.744;2022-08-05T08:22:03;6.47;;;5.88;;
70588;SDS011;58152;49.202;18.744;2022-08-05T08:24:35;5.65;;;4.60;;
70588;SDS011;58152;49.202;18.744;2022-08-05T08:27:01;6.25;;;5.68;;
70588;SDS011;58152;49.202;18.744;2022-08-05T08:29:27;4.57;;;4.18;;
70588;SDS011;58152;49.202;18.744;2022-08-05T08:31:53;6.35;;;4.95;;
70588;SDS011;58152;49.202;18.744;2022-08-05T08:34:19;4.95;;;4.45;;
70588;SDS011;58152;49.202;18.744;2022-08-05T08:36:46;5.30;;;4.80;;
70588;SDS011;58152;49.202;18.744;2022-08-05T08:39:12;7.93;;;5.07;;
70588;SDS011;58152;49.202;18.744;2022-08-05T08:41:41;5.13;;;4.63;;
70588;SDS011;58152;49.202;18.744;2022-08-05T08:44:15;5.68;;;4.80;;
70588;SDS011;58152;49.202;18.744;2022-08-05T08:46:42;7.68;;;6.10;;
70588;SDS011;58152;49.202;18.744;2022-08-05T08:49:08;6.13;;;4.95;;
70588;SDS011;58152;49.202;18.744;2022-08-05T08:51:37;6.88;;;5.05;;
70588;SDS011;58152;49.202;18.744;2022-08-05T08:54:05;6.43;;;5.57;;
70588;SDS011;58152;49.202;18.744;2022-08-05T08:56:31;5.25;;;4.75;;
70588;SDS011;58152;49.202;18.744;2022-08-05T08:58:57;4.90;;;4.50;;
70588;SDS011;58152;49.202;18.744;2022-08-05T09:01:23;5.95;;;4.50;;
70588;SDS011;58152;49.202;18.744;2022-08-05T09:03:50;4.75;;;4.20;;
70588;SDS011;58152;49.202;18.744;2022-08-05T09:06:17;6.40;;;5.22;;
70588;SDS011;58152;49.202;18.744;2022-08-05T09:08:43;5.47;;;4.13;;
70588;SDS011;58152;49.202;18.744;2022-08-05T09:11:08;4.22;;;3.78;;
70588;SDS011;58152;49.202;18.744;2022-08-05T09:13:36;4.85;;;4.38;;
70588;SDS011;58152;49.202;18.744;2022-08-05T09:16:02;4.47;;;4.07;;
70588;SDS011;58152;49.202;18.744;2022-08-05T09:18:35;6.35;;;4.32;;
70588;SDS011;58152;49.202;18.744;2022-08-05T09:24:03;4.57;;;4.18;;
70588;SDS011;58152;49.202;18.744;2022-08-05T09:26:32;4.88;;;4.30;;
70588;SDS011;58152;49.202;18.744;2022-08-05T09:28:59;5.50;;;5.05;;
70588;SDS011;58152;49.202;18.744;2022-08-05T09:31:28;5.07;;;4.03;;
70588;SDS011;58152;49.202;18.744;2022-08-05T09:33:56;5.45;;;4.35;;
70588;SDS011;58152;49.202;18.744;2022-08-05T09:36:46;4.80;;;4.40;;
70588;SDS011;58152;49.202;18.744;2022-08-05T09:39:22;4.68;;;4.03;;
70588;SDS011;58152;49.202;18.744;2022-08-05T09:42:08;4.75;;;3.88;;
70588;SDS011;58152;49.202;18.744;2022-08-05T09:44:37;4.95;;;4.18;;
70588;SDS011;58152;49.202;18.744;2022-08-05T09:47:23;4.55;;;4.25;;
70588;SDS011;58152;49.202;18.744;2022-08-05T09:49:50;4.53;;;4.13;;
70588;SDS011;58152;49.202;18.744;2022-08-05T09:52:28;4.18;;;3.88;;
70588;SDS011;58152;49.202;18.744;2022-08-05T09:54:59;4.30;;;3.90;;
70588;SDS011;58152;49.202;18.744;2022-08-05T09:57:36;4.38;;;3.97;;
70588;SDS011;58152;49.202;18.744;2022-08-05T10:00:06;4.00;;;3.72;;
70588;SDS011;58152;49.202;18.744;2022-08-05T10:02:44;4.20;;;3.33;;
70588;SDS011;58152;49.202;18.744;2022-08-05T10:05:24;4.03;;;3.63;;
70588;SDS011;58152;49.202;18.744;2022-08-05T10:07:54;4.40;;;3.80;;
70588;SDS011;58152;49.202;18.744;2022-08-05T10:13:49;4.88;;;2.85;;
70588;SDS011;58152;49.202;18.744;2022-08-05T10:19:14;4.57;;;4.18;;
70588;SDS011;58152;49.202;18.744;2022-08-05T10:21:43;4.45;;;4.05;;
70588;SDS011;58152;49.202;18.744;2022-08-05T10:24:19;3.70;;;3.38;;
70588;SDS011;58152;49.202;18.744;2022-08-05T10:26:51;3.58;;;3.30;;
70588;SDS011;58152;49.202;18.744;2022-08-05T10:29:20;3.72;;;3.30;;
70588;SDS011;58152;49.202;18.744;2022-08-05T10:32:00;3.38;;;3.08;;
70588;SDS011;58152;49.202;18.744;2022-08-05T10:34:48;4.05;;;3.65;;
70588;SDS011;58152;49.202;18.744;2022-08-05T10:37:28;3.70;;;3.40;;
70588;SDS011;58152;49.202;18.744;2022-08-05T10:39:56;4.18;;;3.50;;
70588;SDS011;58152;49.202;18.744;2022-08-05T10:42:25;5.93;;;4.45;;
70588;SDS011;58152;49.202;18.744;2022-08-05T10:45:06;6.15;;;5.55;;
70588;SDS011;58152;49.202;18.744;2022-08-05T10:47:37;5.22;;;4.80;;
70588;SDS011;58152;49.202;18.744;2022-08-05T10:50:11;4.32;;;3.92;;
70588;SDS011;58152;49.202;18.744;2022-08-05T10:55:06;3.33;;;2.50;;
70588;SDS011;58152;49.202;18.744;2022-08-05T10:57:34;2.53;;;2.33;;
70588;SDS011;58152;49.202;18.744;2022-08-05T11:00:07;3.25;;;2.95;;
70588;SDS011;58152;49.202;18.744;2022-08-05T11:02:37;2.67;;;2.47;;
70588;SDS011;58152;49.202;18.744;2022-08-05T11:05:04;2.88;;;2.67;;
70588;SDS011;58152;49.202;18.744;2022-08-05T11:07:34;3.83;;;3.53;;
70588;SDS011;58152;49.202;18.744;2022-08-05T11:10:20;2.95;;;2.75;;
70588;SDS011;58152;49.202;18.744;2022-08-05T11:12:52;4.32;;;2.97;;
70588;SDS011;58152;49.202;18.744;2022-08-05T11:18:07;3.90;;;2.97;;
70588;SDS011;58152;49.202;18.744;2022-08-05T11:21:02;2.92;;;2.72;;
70588;SDS011;58152;49.202;18.744;2022-08-05T11:26:23;4.28;;;3.35;;
70588;SDS011;58152;49.202;18.744;2022-08-05T11:29:04;3.72;;;3.42;;
70588;SDS011;58152;49.202;18.744;2022-08-05T11:32:21;2.75;;;2.55;;
70588;SDS011;58152;49.202;18.744;2022-08-05T11:34:56;3.42;;;2.60;;
70588;SDS011;58152;49.202;18.744;2022-08-05T11:40:40;2.85;;;2.47;;
70588;SDS011;58152;49.202;18.744;2022-08-05T11:43:31;2.92;;;2.72;;
70588;SDS011;58152;49.202;18.744;2022-08-05T11:45:58;2.72;;;2.53;;
70588;SDS011;58152;49.202;18.744;2022-08-05T11:48:24;3.08;;;2.55;;
70588;SDS011;58152;49.202;18.744;2022-08-05T11:50:51;2.83;;;2.63;;
70588;SDS011;58152;49.202;18.744;2022-08-05T11:53:17;2.33;;;2.13;;
70588;SDS011;58152;49.202;18.744;2022-08-05T12:01:05;3.55;;;2.33;;
70588;SDS011;58152;49.202;18.744;2022-08-05T12:06:25;2.85;;;2.30;;
70588;SDS011;58152;49.202;18.744;2022-08-05T12:08:59;2.50;;;2.30;;
70588;SDS011;58152;49.202;18.744;2022-08-05T12:11:29;2.42;;;2.22;;
70588;SDS011;58152;49.202;18.744;2022-08-05T12:14:02;3.28;;;2.47;;
70588;SDS011;58152;49.202;18.744;2022-08-05T12:16:34;4.95;;;4.53;;
70588;SDS011;58152;49.202;18.744;2022-08-05T12:19:06;3.72;;;3.42;;
70588;SDS011;58152;49.202;18.744;2022-08-05T12:21:40;2.63;;;2.42;;
70588;SDS011;58152;49.202;18.744;2022-08-05T12:24:09;3.70;;;2.20;;
70588;SDS011;58152;49.202;18.744;2022-08-05T12:26:43;3.88;;;2.13;;
70588;SDS011;58152;49.202;18.744;2022-08-05T12:29:18;2.60;;;2.40;;
70588;SDS011;58152;49.202;18.744;2022-08-05T12:31:52;2.97;;;2.25;;
70588;SDS011;58152;49.202;18.744;2022-08-05T12:34:31;5.28;;;4.75;;
70588;SDS011;58152;49.202;18.744;2022-08-05T12:37:01;4.47;;;3.85;;
70588;SDS011;58152;49.202;18.744;2022-08-05T12:39:39;3.22;;;2.80;;
70588;SDS011;58152;49.202;18.744;2022-08-05T12:42:15;2.40;;;2.20;;
70588;SDS011;58152;49.202;18.744;2022-08-05T12:44:44;7.15;;;6.50;;
70588;SDS011;58152;49.202;18.744;2022-08-05T12:47:11;6.22;;;5.72;;
70588;SDS011;58152;49.202;18.744;2022-08-05T12:49:43;3.58;;;3.28;;
70588;SDS011;58152;49.202;18.744;2022-08-05T12:52:16;2.65;;;2.45;;
70588;SDS011;58152;49.202;18.744;2022-08-05T12:54:48;2.75;;;1.98;;
70588;SDS011;58152;49.202;18.744;2022-08-05T12:57:15;2.40;;;2.30;;
70588;SDS011;58152;49.202;18.744;2022-08-05T12:59:51;2.42;;;2.22;;
70588;SDS011;58152;49.202;18.744;2022-08-05T13:02:19;3.38;;;2.33;;
70588;SDS011;58152;49.202;18.744;2022-08-05T13:04:49;2.40;;;2.20;;
70588;SDS011;58152;49.202;18.744;2022-08-05T13:07:34;2.92;;;2.50;;
70588;SDS011;58152;49.202;18.744;2022-08-05T13:10:04;2.55;;;2.35;;
70588;SDS011;58152;49.202;18.744;2022-08-05T13:12:38;27.08;;;24.80;;
70588;SDS011;58152;49.202;18.744;2022-08-05T13:15:09;34.88;;;31.75;;
70588;SDS011;58152;49.202;18.744;2022-08-05T13:17:54;15.88;;;14.57;;
70588;SDS011;58152;49.202;18.744;2022-08-05T13:20:20;4.15;;;3.83;;
70588;SDS011;58152;49.202;18.744;2022-08-05T13:22:51;2.50;;;2.22;;
70588;SDS011;58152;49.202;18.744;2022-08-05T13:25:18;2.20;;;2.00;;
70588;SDS011;58152;49.202;18.744;2022-08-05T13:27:48;1.63;;;1.40;;
70588;SDS011;58152;49.202;18.744;2022-08-05T13:30:21;1.73;;;1.63;;
70588;SDS011;58152;49.202;18.744;2022-08-05T13:32:49;1.90;;;1.80;;
70588;SDS011;58152;49.202;18.744;2022-08-05T13:35:16;1.75;;;1.63;;
70588;SDS011;58152;49.202;18.744;2022-08-05T13:37:42;1.88;;;1.73;;
70588;SDS011;58152;49.202;18.744;2022-08-05T13:40:08;1.92;;;1.83;;
70588;SDS011;58152;49.202;18.744;2022-08-05T13:42:34;1.98;;;1.67;;
70588;SDS011;58152;49.202;18.744;2022-08-05T13:45:00;2.03;;;1.83;;
70588;SDS011;58152;49.202;18.744;2022-08-05T13:47:26;2.03;;;1.83;;
70588;SDS011;58152;49.202;18.744;2022-08-05T13:49:52;1.98;;;1.88;;
70588;SDS011;58152;49.202;18.744;2022-08-05T13:52:19;2.08;;;1.63;;
70588;SDS011;58152;49.202;18.744;2022-08-05T13:54:47;1.92;;;1.80;;
70588;SDS011;58152;49.202;18.744;2022-08-05T13:57:15;4.53;;;3.10;;
70588;SDS011;58152;49.202;18.744;2022-08-05T13:59:45;3.22;;;2.72;;
70588;SDS011;58152;49.202;18.744;2022-08-05T14:02:37;3.20;;;2.15;;
70588;SDS011;58152;49.202;18.744;2022-08-05T14:05:03;2.63;;;2.30;;
70588;SDS011;58152;49.202;18.744;2022-08-05T14:07:55;1.73;;;1.63;;
70588;SDS011;58152;49.202;18.744;2022-08-05T14:10:24;1.92;;;1.80;;
70588;SDS011;58152;49.202;18.744;2022-08-05T14:12:50;2.60;;;2.22;;
70588;SDS011;58152;49.202;18.744;2022-08-05T14:15:19;2.42;;;2.00;;
70588;SDS011;58152;49.202;18.744;2022-08-05T14:17:51;1.80;;;1.70;;
70588;SDS011;58152;49.202;18.744;2022-08-05T14:20:28;1.67;;;1.58;;
70588;SDS011;58152;49.202;18.744;2022-08-05T14:22:55;2.88;;;1.95;;
70588;SDS011;58152;49.202;18.744;2022-08-05T14:25:22;1.60;;;1.50;;
70588;SDS011;58152;49.202;18.744;2022-08-05T14:27:51;1.90;;;1.80;;
70588;SDS011;58152;49.202;18.744;2022-08-05T14:30:23;1.80;;;1.50;;
70588;SDS011;58152;49.202;18.744;2022-08-05T14:33:04;2.42;;;1.65;;
70588;SDS011;58152;49.202;18.744;2022-08-05T14:35:33;3.08;;;2.40;;
70588;SDS011;58152;49.202;18.744;2022-08-05T14:40:43;2.47;;;2.28;;
70588;SDS011;58152;49.202;18.744;2022-08-05T14:43:12;1.90;;;1.75;;
70588;SDS011;58152;49.202;18.744;2022-08-05T14:45:37;2.10;;;1.90;;
70588;SDS011;58152;49.202;18.744;2022-08-05T14:48:05;1.90;;;1.80;;
70588;SDS011;58152;49.202;18.744;2022-08-05T14:50:31;2.00;;;1.80;;
70588;SDS011;58152;49.202;18.744;2022-08-05T14:52:57;1.63;;;1.42;;
70588;SDS011;58152;49.202;18.744;2022-08-05T14:55:23;1.75;;;1.60;;
70588;SDS011;58152;49.202;18.744;2022-08-05T14:57:49;2.03;;;1.58;;
70588;SDS011;58152;49.202;18.744;2022-08-05T15:00:15;2.63;;;1.50;;
70588;SDS011;58152;49.202;18.744;2022-08-05T15:02:41;1.70;;;1.60;;
70588;SDS011;58152;49.202;18.744;2022-08-05T15:05:06;1.65;;;1.55;;
70588;SDS011;58152;49.202;18.744;2022-08-05T15:07:35;2.40;;;1.50;;
70588;SDS011;58152;49.202;18.744;2022-08-05T15:10:00;1.60;;;1.50;;
70588;SDS011;58152;49.202;18.744;2022-08-05T15:12:26;1.58;;;1.48;;
70588;SDS011;58152;49.202;18.744;2022-08-05T15:14:51;1.45;;;1.35;;
70588;SDS011;58152;49.202;18.744;2022-08-05T15:17:17;2.20;;;1.40;;
70588;SDS011;58152;49.202;18.744;2022-08-05T15:19:49;2.05;;;1.83;;
70588;SDS011;58152;49.202;18.744;2022-08-05T15:22:15;1.58;;;1.48;;
70588;SDS011;58152;49.202;18.744;2022-08-05T15:24:40;1.60;;;1.50;;
70588;SDS011;58152;49.202;18.744;2022-08-05T15:27:14;2.17;;;1.20;;
70588;SDS011;58152;49.202;18.744;2022-08-05T15:32:39;1.30;;;1.20;;